Time;durP1;ratioP1;P1;durP2;ratioP2;P2;SDS_P1;SDS_P2;PMS_P1;PMS_P2;Temp;Humidity;BMP_temperature;BMP_pressure;BME280_temperature;BME280_humidity;BME280_pressure;Samples;Min_cycle;Max_cycle;Signal;HPM_P1;HPM_P2
2023/01/12 00:01:09;;;;;;;;;2.25;2.00;;;;;10.27;92.95;101640.63;4977667;28;62187;-83
2023/01/12 00:03:34;;;;;;;;;2.00;0.75;;;;;10.27;92.90;101631.97;4976892;28;69913;-83
2023/01/12 00:06:06;;;;;;;;;1.00;1.00;;;;;10.28;92.85;101637.13;4976951;28;59275;-83
2023/01/12 00:08:34;;;;;;;;;8.50;1.00;;;;;10.26;92.47;101630.25;4976978;28;45613;-83
2023/01/12 00:11:01;;;;;;;;;2.00;0.50;;;;;10.24;91.51;101626.81;5010659;28;45362;-82
2023/01/12 00:13:30;;;;;;;;;0.50;0.00;;;;;10.23;92.52;101617.28;4978093;28;45493;-83
2023/01/12 00:18:41;;;;;;;;;8.50;1.00;;;;;10.21;92.37;101606.03;4978124;28;45382;-84
2023/01/12 00:21:07;;;;;;;;;2.50;1.00;;;;;10.22;92.01;101607.75;4961489;28;45509;-83
2023/01/12 00:23:32;;;;;;;;;5.50;1.00;;;;;10.24;93.33;101599.03;4992195;28;46337;-84
2023/01/12 00:25:58;;;;;;;;;4.50;0.25;;;;;10.21;91.88;101599.06;5009408;28;61407;-83
2023/01/12 00:28:23;;;;;;;;;2.25;0.50;;;;;10.23;92.55;101588.66;4977438;28;56202;-83
2023/01/12 00:30:48;;;;;;;;;2.50;1.25;;;;;10.22;91.83;101602.56;4976970;28;60061;-83
2023/01/12 00:33:14;;;;;;;;;0.25;0.25;;;;;10.22;91.32;101606.00;4977938;28;57973;-83
2023/01/12 00:35:39;;;;;;;;;2.00;0.50;;;;;10.20;90.62;101579.16;4976955;28;45515;-84
2023/01/12 00:38:05;;;;;;;;;2.25;1.00;;;;;10.19;92.71;101586.97;5010190;28;45445;-83
2023/01/12 00:40:31;;;;;;;;;2.00;0.50;;;;;10.22;91.12;101597.34;5009280;28;45374;-83
2023/01/12 00:45:40;;;;;;;;;3.50;2.00;;;;;10.23;93.82;101586.03;4997071;28;45436;-83
2023/01/12 00:48:05;;;;;;;;;0.50;0.50;;;;;10.25;93.77;101577.34;4982119;28;45343;-83
2023/01/12 00:50:30;;;;;;;;;3.00;0.00;;;;;10.26;92.40;101558.25;4977703;28;60822;-84
2023/01/12 00:52:56;;;;;;;;;1.75;0.00;;;;;10.27;92.55;101546.13;4975889;28;61145;-83
2023/01/12 00:55:21;;;;;;;;;1.75;0.50;;;;;10.27;92.74;101541.75;4978074;28;45335;-83
2023/01/12 00:57:47;;;;;;;;;3.50;0.00;;;;;10.28;93.07;101546.06;4955846;28;56219;-82
2023/01/12 01:00:13;;;;;;;;;2.25;0.00;;;;;10.27;91.84;101538.31;4971466;28;45311;-83
2023/01/12 01:02:38;;;;;;;;;0.00;0.00;;;;;10.28;92.20;101550.41;4977765;28;46639;-81
2023/01/12 01:05:04;;;;;;;;;1.75;1.00;;;;;10.27;92.77;101549.56;4976367;28;57666;-83
2023/01/12 01:07:29;;;;;;;;;1.00;1.00;;;;;10.28;92.43;101553.03;5008944;28;45533;-83
2023/01/12 01:09:54;;;;;;;;;0.50;0.50;;;;;10.30;92.59;101560.81;4992563;28;57939;-83
2023/01/12 01:12:20;;;;;;;;;4.00;0.00;;;;;10.32;92.68;101569.47;5008404;28;56535;-83
2023/01/12 01:14:48;;;;;;;;;1.00;1.00;;;;;10.33;91.35;101560.81;5009384;28;47025;-83
2023/01/12 01:17:14;;;;;;;;;5.00;1.25;;;;;10.34;91.16;101558.16;4992530;28;45319;-82
2023/01/12 01:19:39;;;;;;;;;3.00;1.00;;;;;10.36;92.20;101560.75;4976723;28;45496;-83
2023/01/12 01:22:04;;;;;;;;;5.00;0.25;;;;;10.38;91.93;101569.38;5009165;28;45421;-83
2023/01/12 01:24:30;;;;;;;;;1.00;0.25;;;;;10.39;90.23;101561.56;5007707;28;61439;-83
2023/01/12 01:26:55;;;;;;;;;1.75;0.75;;;;;10.39;90.85;101547.69;4976910;28;63590;-83
2023/01/12 01:29:20;;;;;;;;;1.00;1.00;;;;;10.41;90.66;101558.94;5007968;28;45401;-82
2023/01/12 01:31:49;;;;;;;;;2.00;0.50;;;;;10.41;91.04;101572.81;4976963;28;45390;-82
2023/01/12 01:34:14;;;;;;;;;2.25;0.00;;;;;10.41;91.77;101559.78;4976287;28;45569;-83
2023/01/12 01:36:40;;;;;;;;;4.00;1.00;;;;;10.40;91.57;101549.41;4976230;28;45333;-83
2023/01/12 01:39:05;;;;;;;;;3.50;0.25;;;;;10.39;90.87;101556.34;4970992;28;57610;-82
2023/01/12 01:41:32;;;;;;;;;3.00;2.00;;;;;10.39;90.69;101566.75;4957861;28;46308;-81
2023/01/12 01:43:58;;;;;;;;;1.00;0.25;;;;;10.42;92.81;101550.25;4991794;28;45481;-81
2023/01/12 01:46:33;;;;;;;;;2.50;0.25;;;;;10.43;91.79;101536.34;5009289;28;45603;-82
2023/01/12 01:49:08;;;;;;;;;0.00;0.00;;;;;10.43;92.03;101529.38;4976541;28;45374;-83
2023/01/12 01:51:34;;;;;;;;;0.25;0.25;;;;;10.44;92.02;101520.72;5008885;28;45861;-83
2023/01/12 01:54:00;;;;;;;;;1.75;0.00;;;;;10.42;90.74;101539.84;4975263;28;45371;-83
2023/01/12 01:56:30;;;;;;;;;1.50;0.00;;;;;10.42;91.76;101532.03;5008958;28;45377;-83
2023/01/12 01:59:01;;;;;;;;;4.50;2.25;;;;;10.41;92.34;101530.31;4975381;28;45305;-83
2023/01/12 02:01:27;;;;;;;;;1.25;0.75;;;;;10.43;91.27;101533.75;4975041;28;45428;-84
2023/01/12 02:03:54;;;;;;;;;0.75;0.75;;;;;10.45;92.38;101529.38;5007291;28;49107;-84
2023/01/12 02:06:22;;;;;;;;;1.00;0.00;;;;;10.49;92.68;101540.59;4998591;28;57653;-83
2023/01/12 02:08:55;;;;;;;;;0.75;0.00;;;;;10.51;91.79;101533.63;4956460;28;45412;-83
2023/01/12 02:17:03;;;;;;;;;3.00;0.00;;;;;10.51;91.68;101526.69;4957361;28;45300;-83
2023/01/12 02:19:38;;;;;;;;;2.00;0.00;;;;;10.51;91.06;101524.09;4963458;28;45495;-83
2023/01/12 02:22:18;;;;;;;;;1.00;0.00;;;;;10.52;91.09;101524.94;5008223;28;46675;-83
2023/01/12 02:24:49;;;;;;;;;4.75;0.00;;;;;10.53;90.17;101521.44;4974860;28;45629;-83
2023/01/12 02:27:30;;;;;;;;;0.25;0.00;;;;;10.55;90.48;101537.88;5008562;28;45456;-83
2023/01/12 02:30:27;;;;;;;;;2.00;0.00;;;;;10.55;91.99;101524.88;4976021;28;45421;-83
2023/01/12 02:33:07;;;;;;;;;0.75;0.75;;;;;10.57;90.79;101510.13;4975990;28;45409;-84
2023/01/12 02:35:45;;;;;;;;;2.00;0.75;;;;;10.60;91.32;101500.47;4955743;28;45384;-82
2023/01/12 02:38:46;;;;;;;;;0.00;0.00;;;;;10.62;90.69;101492.66;4958802;28;45715;-83
2023/01/12 02:44:35;;;;;;;;;1.00;0.00;;;;;10.67;91.88;101480.41;4955971;28;45386;-84
2023/01/12 02:47:05;;;;;;;;;2.75;1.00;;;;;10.69;92.11;101476.03;4974714;28;45806;-83
2023/01/12 02:49:37;;;;;;;;;2.00;1.00;;;;;10.68;89.38;101476.06;5007581;28;45481;-81
2023/01/12 02:52:09;;;;;;;;;6.00;0.00;;;;;10.71;91.05;101471.66;4991230;28;45354;-83
2023/01/12 02:54:35;;;;;;;;;1.00;0.00;;;;;10.72;91.03;101472.53;4975430;28;46525;-83
2023/01/12 02:57:05;;;;;;;;;3.25;0.25;;;;;10.74;90.92;101473.38;4975485;28;65198;-82
2023/01/12 02:59:33;;;;;;;;;1.75;0.25;;;;;10.74;90.89;101465.56;4975074;28;45508;-83
2023/01/12 03:02:03;;;;;;;;;2.00;1.00;;;;;10.74;91.03;101465.56;4974605;28;45410;-83
2023/01/12 03:04:31;;;;;;;;;3.00;1.00;;;;;10.74;90.33;101450.78;4974708;28;46521;-83
2023/01/12 03:06:56;;;;;;;;;1.00;0.00;;;;;10.76;90.63;101455.97;4976359;28;45576;-83
2023/01/12 03:09:25;;;;;;;;;6.67;0.00;;;;;10.75;90.18;101447.28;4976204;28;45456;-83
2023/01/12 03:11:52;;;;;;;;;1.00;0.00;;;;;10.76;90.07;101453.38;4976264;28;45441;-83
2023/01/12 03:14:20;;;;;;;;;2.00;0.00;;;;;10.77;91.21;101437.72;4974877;28;45404;-83
2023/01/12 03:16:46;;;;;;;;;0.00;0.00;;;;;10.80;89.12;101447.22;4974402;28;45673;-82
2023/01/12 03:19:18;;;;;;;;;2.00;0.00;;;;;10.78;89.50;101436.81;4975174;28;45697;-82
2023/01/12 03:22:02;;;;;;;;;0.00;0.00;;;;;10.78;90.19;101433.34;4976063;28;45394;-83
2023/01/12 03:24:35;;;;;;;;;1.25;0.00;;;;;10.76;90.26;101420.34;4975922;28;45508;-83
2023/01/12 03:27:27;;;;;;;;;2.00;0.00;;;;;10.76;89.83;101427.31;4974678;28;45505;-83
2023/01/12 03:30:00;;;;;;;;;0.25;0.00;;;;;10.75;89.57;101428.19;4966220;28;45603;-82
2023/01/12 03:32:25;;;;;;;;;3.00;0.00;;;;;10.73;89.82;101420.41;4974843;28;45433;-83
2023/01/12 03:34:51;;;;;;;;;2.00;0.50;;;;;10.71;89.15;101423.94;4975065;28;64225;-84
2023/01/12 03:37:36;;;;;;;;;5.00;0.00;;;;;10.69;91.02;101416.16;4974230;28;55677;-84
2023/01/12 03:40:42;;;;;;;;;1.75;0.00;;;;;10.68;90.58;101396.22;4975430;28;45467;-83
2023/01/12 03:43:14;;;;;;;;;0.25;0.00;;;;;10.65;89.88;101397.13;4915305;28;45404;-83
2023/01/12 03:45:45;;;;;;;;;0.50;0.00;;;;;10.64;91.05;101398.03;4899113;28;46408;-84
2023/01/12 03:48:15;;;;;;;;;0.50;0.00;;;;;10.63;89.59;101411.91;4899471;28;45433;-83
2023/01/12 03:50:45;;;;;;;;;0.00;0.00;;;;;10.59;89.75;101389.44;4899848;28;45452;-83
2023/01/12 03:53:12;;;;;;;;;4.50;1.00;;;;;10.57;90.17;101387.75;4934656;28;45447;-83
2023/01/12 03:55:38;;;;;;;;;0.50;0.00;;;;;10.56;91.22;101386.88;4918478;28;47017;-83
2023/01/12 03:58:03;;;;;;;;;2.25;1.00;;;;;10.56;90.95;101386.88;4902612;28;45890;-83
2023/01/12 04:00:29;;;;;;;;;1.50;0.00;;;;;10.57;90.89;101395.56;4901596;28;63452;-82
2023/01/12 04:03:03;;;;;;;;;3.00;1.50;;;;;10.57;89.83;101380.81;4899500;29;45343;-83
2023/01/12 04:05:28;;;;;;;;;0.00;0.00;;;;;10.57;89.97;101356.53;4899049;29;47301;-83
2023/01/12 04:07:53;;;;;;;;;0.00;0.00;;;;;10.57;90.18;101367.78;4898907;29;66716;-83
2023/01/12 04:10:19;;;;;;;;;1.00;0.25;;;;;10.59;90.83;101357.34;4899630;29;45404;-83
2023/01/12 04:12:44;;;;;;;;;0.50;0.00;;;;;10.61;90.90;101351.22;4914703;28;55779;-83
2023/01/12 04:15:09;;;;;;;;;3.00;0.00;;;;;10.63;89.69;101361.59;4898469;29;63877;-83
2023/01/12 04:17:35;;;;;;;;;0.25;0.25;;;;;10.63;90.08;101353.78;4900715;28;45438;-83
2023/01/12 04:20:00;;;;;;;;;1.00;0.00;;;;;10.65;89.08;101345.03;4957794;28;46063;-83
2023/01/12 04:22:43;;;;;;;;;2.25;1.00;;;;;10.66;89.14;101348.53;4990484;28;45532;-83
2023/01/12 04:25:17;;;;;;;;;0.00;0.00;;;;;10.68;89.40;101354.56;4957811;28;46510;-83
2023/01/12 04:27:50;;;;;;;;;0.75;0.00;;;;;10.70;88.45;101346.69;4958578;28;45522;-83
2023/01/12 04:30:17;;;;;;;;;0.00;0.00;;;;;10.73;88.88;101337.09;4973949;28;45431;-83
2023/01/12 04:32:43;;;;;;;;;1.25;0.00;;;;;10.75;88.82;101319.69;4958874;28;45553;-83
2023/01/12 04:35:11;;;;;;;;;2.00;0.00;;;;;10.78;88.98;101324.84;4958814;28;46283;-83
2023/01/12 04:37:37;;;;;;;;;2.00;0.75;;;;;10.81;88.99;101340.41;4990366;28;45705;-83
2023/01/12 04:40:03;;;;;;;;;3.00;0.50;;;;;10.86;88.97;101337.69;4990401;28;45391;-83
2023/01/12 04:45:12;;;;;;;;;1.00;0.00;;;;;10.89;88.20;101335.03;4996795;28;45603;-83
2023/01/12 04:47:38;;;;;;;;;4.50;1.00;;;;;10.93;88.10;101346.25;4996684;28;45429;-83
2023/01/12 04:50:04;;;;;;;;;0.75;0.00;;;;;10.97;87.68;101329.66;4997934;28;45378;-83
2023/01/12 04:52:29;;;;;;;;;0.25;0.00;;;;;10.99;88.07;101323.53;4992824;28;45378;-84
2023/01/12 04:54:54;;;;;;;;;2.25;0.25;;;;;11.03;87.54;101327.81;4977995;28;46476;-83
2023/01/12 04:57:20;;;;;;;;;0.00;0.00;;;;;11.08;87.52;101324.22;4977523;28;50661;-83
2023/01/12 04:59:45;;;;;;;;;1.50;0.00;;;;;11.09;86.72;101326.81;4959876;28;61130;-84
2023/01/12 05:02:11;;;;;;;;;6.00;0.00;;;;;11.11;85.72;101321.56;4976882;28;62489;-83
2023/01/12 05:04:36;;;;;;;;;1.75;0.75;;;;;11.11;86.31;101313.75;4977012;28;45417;-83
2023/01/12 05:07:01;;;;;;;;;1.00;0.00;;;;;11.12;87.20;101310.25;4977955;28;45391;-83
2023/01/12 05:12:10;;;;;;;;;1.25;1.00;;;;;11.17;86.71;101305.78;4977529;28;45368;-84
2023/01/12 05:14:36;;;;;;;;;0.25;0.00;;;;;11.17;86.85;101311.84;4976577;28;45467;-84
2023/01/12 05:17:01;;;;;;;;;3.00;1.00;;;;;11.18;86.95;101302.28;4976806;28;64339;-84
2023/01/12 05:19:26;;;;;;;;;4.25;1.50;;;;;11.17;87.26;101317.06;4976630;28;45395;-83
2023/01/12 05:21:52;;;;;;;;;0.50;0.50;;;;;11.16;86.69;101302.34;4977085;28;65751;-83
2023/01/12 05:24:17;;;;;;;;;2.00;0.50;;;;;11.15;85.50;101299.75;4976842;28;62207;-83
2023/01/12 05:26:42;;;;;;;;;5.00;0.00;;;;;11.14;86.27;101298.03;4976710;28;62144;-83
2023/01/12 05:29:10;;;;;;;;;6.25;0.25;;;;;11.11;86.18;101306.78;4975601;28;59903;-83
2023/01/12 05:31:36;;;;;;;;;1.25;0.00;;;;;11.12;87.46;101298.06;4977673;28;45455;-83
2023/01/12 05:34:01;;;;;;;;;1.25;0.00;;;;;11.16;87.73;101294.53;4975520;28;65635;-83
2023/01/12 05:36:26;;;;;;;;;1.50;0.50;;;;;11.19;86.80;101306.59;4976206;28;45568;-84
2023/01/12 05:38:52;;;;;;;;;0.00;0.00;;;;;11.19;86.85;101301.41;4977004;28;53770;-83
2023/01/12 05:41:17;;;;;;;;;0.00;0.00;;;;;11.17;86.99;101297.97;4976163;28;65261;-84
2023/01/12 05:43:49;;;;;;;;;2.00;0.00;;;;;11.19;86.30;101306.59;4977099;28;46503;-83
2023/01/12 05:46:16;;;;;;;;;1.00;0.00;;;;;11.17;85.85;101304.03;4977433;28;45608;-83
2023/01/12 05:48:41;;;;;;;;;1.00;0.75;;;;;11.16;85.94;101312.75;4977398;28;45378;-84
2023/01/12 05:51:09;;;;;;;;;2.00;0.00;;;;;11.14;85.33;101319.72;4977250;28;45390;-83
2023/01/12 05:53:35;;;;;;;;;0.00;0.00;;;;;11.16;86.69;101320.56;5008426;28;45537;-83
2023/01/12 05:56:08;;;;;;;;;0.75;0.00;;;;;11.17;86.80;101329.25;4991946;28;45335;-83
2023/01/12 05:58:33;;;;;;;;;3.50;1.00;;;;;11.18;86.99;101315.31;4977307;28;45369;-83
2023/01/12 06:00:58;;;;;;;;;2.00;0.00;;;;;11.21;87.02;101321.31;4975881;28;45410;-83
2023/01/12 06:03:24;;;;;;;;;0.00;0.00;;;;;11.22;87.18;101303.94;4975107;28;61812;-83
2023/01/12 06:05:53;;;;;;;;;1.75;1.00;;;;;11.25;85.59;101311.69;4974905;28;64152;-83
2023/01/12 06:08:18;;;;;;;;;0.75;0.00;;;;;11.27;86.79;101311.66;4975979;28;45404;-84
2023/01/12 06:10:44;;;;;;;;;0.00;0.00;;;;;11.28;86.19;101301.19;4976707;28;45430;-83
2023/01/12 06:15:59;;;;;;;;;2.00;0.00;;;;;11.29;86.89;101300.31;4976881;28;45696;-84
2023/01/12 06:18:24;;;;;;;;;0.00;0.00;;;;;11.27;86.31;101286.44;4976900;28;45364;-83
2023/01/12 06:20:49;;;;;;;;;0.75;0.00;;;;;11.24;86.64;101297.78;4976131;28;60240;-83
2023/01/12 06:23:15;;;;;;;;;2.00;0.00;;;;;11.23;86.45;101301.28;4991871;28;55089;-84
2023/01/12 06:25:40;;;;;;;;;1.00;0.00;;;;;11.24;86.84;101312.59;4974632;28;60179;-82
2023/01/12 06:28:05;;;;;;;;;0.00;0.00;;;;;11.27;87.62;101301.22;4976026;28;62766;-83
2023/01/12 06:30:31;;;;;;;;;2.00;0.00;;;;;11.27;87.23;101304.69;4976347;28;56223;-83
2023/01/12 06:33:00;;;;;;;;;1.75;0.00;;;;;11.28;86.14;101302.94;4974766;28;63581;-83
2023/01/12 06:35:25;;;;;;;;;2.50;1.00;;;;;11.29;86.85;101313.34;4975379;28;45603;-83
2023/01/12 06:37:55;;;;;;;;;0.25;0.00;;;;;11.30;86.83;101314.19;4976498;28;45208;-86
2023/01/12 06:40:20;;;;;;;;;2.25;0.00;;;;;11.33;85.63;101312.38;4975157;28;45673;-84
2023/01/12 06:42:45;;;;;;;;;1.00;0.00;;;;;11.34;87.13;101306.25;4990460;28;66761;-83
2023/01/12 06:45:11;;;;;;;;;0.00;0.00;;;;;11.36;86.41;101316.66;4975766;28;66372;-82
2023/01/12 06:47:48;;;;;;;;;1.00;0.00;;;;;11.37;86.07;101310.56;4976517;28;45524;-82
2023/01/12 06:50:14;;;;;;;;;2.75;0.00;;;;;11.34;84.85;101311.47;4976503;28;45521;-80
2023/01/12 06:52:39;;;;;;;;;1.00;0.00;;;;;11.35;85.41;101309.75;4972591;28;45465;-82
2023/01/12 06:55:05;;;;;;;;;0.00;0.00;;;;;11.36;84.94;101307.06;4973687;28;48953;-82
2023/01/12 06:57:30;;;;;;;;;0.00;0.00;;;;;11.37;86.22;101306.19;5008086;28;45309;-83
2023/01/12 06:59:55;;;;;;;;;2.00;0.25;;;;;11.39;85.19;101311.38;4974973;28;46781;-82
2023/01/12 07:02:21;;;;;;;;;1.00;0.00;;;;;11.39;85.69;101307.00;4974555;28;46331;-82
2023/01/12 07:04:46;;;;;;;;;0.00;0.00;;;;;11.38;85.06;101289.63;4975146;28;45558;-83
2023/01/12 07:07:12;;;;;;;;;0.00;0.00;;;;;11.36;85.19;101280.16;5005642;28;58876;-82
2023/01/12 07:09:37;;;;;;;;;0.00;0.00;;;;;11.30;85.06;101285.53;5007886;28;45575;-84
2023/01/12 07:12:03;;;;;;;;;0.00;0.00;;;;;11.30;86.20;101298.56;4975194;28;45491;-84
2023/01/12 07:14:29;;;;;;;;;2.00;0.00;;;;;11.28;86.68;101293.38;4974461;28;45475;-83
2023/01/12 07:16:54;;;;;;;;;0.75;0.00;;;;;11.28;86.92;101284.72;4975710;28;56104;-83
2023/01/12 07:19:19;;;;;;;;;0.00;0.00;;;;;11.28;87.12;101301.19;4957965;28;45390;-83
2023/01/12 07:21:45;;;;;;;;;0.00;0.00;;;;;11.29;87.10;101291.63;4974132;28;67448;-82
2023/01/12 07:24:10;;;;;;;;;1.00;0.00;;;;;11.32;87.42;101294.16;4973207;28;63691;-83
2023/01/12 07:26:36;;;;;;;;;0.75;0.00;;;;;11.35;87.11;101305.38;4976473;28;45421;-84
2023/01/12 07:29:01;;;;;;;;;0.00;0.00;;;;;11.35;86.35;101307.97;4961276;28;45557;-82
2023/01/12 07:31:27;;;;;;;;;2.00;0.00;;;;;11.33;86.66;101306.28;5010804;28;46516;-83
2023/01/12 07:33:53;;;;;;;;;2.50;0.00;;;;;11.32;87.17;101301.97;4977788;28;62250;-83
2023/01/12 07:36:18;;;;;;;;;0.00;0.00;;;;;11.33;85.79;101311.50;5010743;28;45427;-84
2023/01/12 07:38:44;;;;;;;;;0.00;0.00;;;;;11.32;86.53;101292.41;4978512;28;45399;-83
2023/01/12 07:42:22;;;;;;;;;0.00;0.00;;;;;11.36;87.33;101303.63;4979063;28;45989;-84
2023/01/12 07:43:55;;;;;;;;;0.75;0.00;;;;;11.37;87.39;101307.94;4997658;28;45430;-84
2023/01/12 07:46:20;;;;;;;;;0.00;0.00;;;;;11.36;86.69;101291.44;5010326;28;45937;-83
2023/01/12 07:48:46;;;;;;;;;0.00;0.00;;;;;11.35;86.20;101301.91;4978067;28;45593;-81
2023/01/12 07:51:11;;;;;;;;;2.00;0.00;;;;;11.37;86.15;101293.16;4978762;28;46646;-83
2023/01/12 07:53:36;;;;;;;;;1.00;0.00;;;;;11.37;86.79;101295.75;4992074;28;64140;-84
2023/01/12 07:56:02;;;;;;;;;1.00;0.00;;;;;11.39;87.24;101287.91;4975698;28;57321;-85
2023/01/12 07:58:29;;;;;;;;;1.00;1.00;;;;;11.41;86.73;101304.38;4976467;28;45431;-83
2023/01/12 08:00:57;;;;;;;;;1.50;0.00;;;;;11.42;86.73;101306.94;4976472;28;45571;-83
2023/01/12 08:03:23;;;;;;;;;0.00;0.00;;;;;11.45;86.33;101299.94;4976680;28;46041;-83
2023/01/12 08:05:48;;;;;;;;;0.50;0.00;;;;;11.47;86.02;101305.97;4976781;28;62891;-83
2023/01/12 08:08:14;;;;;;;;;0.00;0.00;;;;;11.47;85.84;101309.44;4960941;28;45397;-82
2023/01/12 08:10:40;;;;;;;;;0.00;0.00;;;;;11.50;86.41;101305.91;4972033;28;45500;-84
2023/01/12 08:13:06;;;;;;;;;1.00;0.00;;;;;11.55;85.35;101306.63;4954356;28;45622;-83
2023/01/12 08:15:37;;;;;;;;;0.00;0.00;;;;;11.58;85.34;101290.94;4969326;28;49050;-82
2023/01/12 08:18:07;;;;;;;;;0.00;0.00;;;;;11.63;85.06;101291.69;5009688;28;45467;-83
2023/01/12 08:20:34;;;;;;;;;0.00;0.00;;;;;11.66;84.57;101295.97;5006826;28;46656;-82
2023/01/12 08:23:13;;;;;;;;;1.00;0.00;;;;;11.70;84.57;101301.06;4965582;28;45864;-83
2023/01/12 08:25:43;;;;;;;;;1.00;0.00;;;;;11.72;83.92;101307.09;4971866;28;45805;-81
2023/01/12 08:28:12;;;;;;;;;0.00;0.00;;;;;11.75;84.18;101317.44;4976967;28;45521;-82
2023/01/12 08:30:37;;;;;;;;;0.00;0.00;;;;;11.77;85.12;101304.38;4974185;28;47134;-83
2023/01/12 08:33:03;;;;;;;;;2.00;0.00;;;;;11.77;84.74;101305.22;4975823;28;66419;-82
2023/01/12 08:35:31;;;;;;;;;1.75;0.00;;;;;11.81;84.04;101311.22;4976892;28;45436;-83
2023/01/12 08:37:56;;;;;;;;;0.50;0.00;;;;;11.80;84.60;101306.91;4968386;28;45491;-83
2023/01/12 08:40:22;;;;;;;;;0.50;0.00;;;;;11.81;84.12;101321.66;4966304;28;46160;-83
2023/01/12 08:42:48;;;;;;;;;0.00;0.00;;;;;11.81;85.11;101308.59;4973713;28;45696;-83
2023/01/12 08:45:41;;;;;;;;;0.00;0.00;;;;;11.81;84.77;101314.72;4973353;28;45502;-83
2023/01/12 08:48:07;;;;;;;;;0.00;0.00;;;;;11.81;85.70;101312.09;4994214;28;45437;-83
2023/01/12 08:50:32;;;;;;;;;0.00;0.00;;;;;11.84;85.71;101315.53;4975056;28;58794;-84
2023/01/12 08:52:57;;;;;;;;;0.00;0.00;;;;;11.86;85.71;101311.97;4967108;28;64096;-82
2023/01/12 08:55:23;;;;;;;;;0.00;0.00;;;;;11.86;85.88;101330.22;4958987;28;45357;-82
2023/01/12 08:57:48;;;;;;;;;0.00;0.00;;;;;11.83;85.15;101309.47;4976202;28;59116;-83
2023/01/12 09:00:14;;;;;;;;;1.00;0.00;;;;;11.84;86.58;101307.69;5008049;28;57251;-84
2023/01/12 09:02:39;;;;;;;;;0.00;0.00;;;;;11.87;86.62;101312.81;4975629;28;45630;-83
2023/01/12 09:05:05;;;;;;;;;0.00;0.00;;;;;11.85;85.94;101312.00;4975030;28;45491;-82
2023/01/12 09:07:31;;;;;;;;;1.00;0.00;;;;;11.86;87.38;101314.56;4976727;28;45485;-84
2023/01/12 09:09:57;;;;;;;;;0.00;0.00;;;;;11.87;86.49;101320.63;4974942;28;46377;-82
2023/01/12 09:12:22;;;;;;;;;2.00;0.00;;;;;11.84;86.41;101316.38;4975032;28;59822;-83
2023/01/12 09:14:48;;;;;;;;;1.00;0.00;;;;;11.85;86.37;101307.66;4974083;28;45538;-83
2023/01/12 09:17:13;;;;;;;;;0.00;0.00;;;;;11.84;87.31;101307.69;4990860;28;45326;-82
2023/01/12 09:19:39;;;;;;;;;0.25;0.00;;;;;11.82;87.11;101311.19;5003114;28;45374;-82
2023/01/12 09:22:04;;;;;;;;;0.00;0.00;;;;;11.85;88.64;101315.50;4973275;28;45350;-83
2023/01/12 09:24:30;;;;;;;;;0.00;0.00;;;;;11.86;87.88;101321.56;5009064;28;45288;-82
2023/01/12 09:26:55;;;;;;;;;1.00;0.00;;;;;11.84;87.52;101323.34;4976501;28;45728;-82
2023/01/12 09:29:20;;;;;;;;;2.00;0.00;;;;;11.85;88.63;101317.22;4977073;28;47089;-83
2023/01/12 09:31:46;;;;;;;;;0.50;0.00;;;;;11.84;88.62;101325.97;4975226;28;66720;-83
2023/01/12 09:34:11;;;;;;;;;3.00;0.25;;;;;11.81;89.70;101322.53;4975373;28;45251;-83
2023/01/12 09:36:38;;;;;;;;;2.00;1.00;;;;;11.79;89.13;101332.16;4975373;28;53338;-81
2023/01/12 09:39:04;;;;;;;;;0.50;0.00;;;;;11.78;89.30;101320.00;4972085;28;48159;-82
2023/01/12 09:47:16;;;;;;;;;1.00;0.00;;;;;11.73;88.88;101323.59;4963398;28;45392;-83
2023/01/12 09:49:46;;;;;;;;;0.00;0.00;;;;;11.72;88.36;101317.53;4974374;28;45447;-82
2023/01/12 09:52:21;;;;;;;;;0.75;0.00;;;;;11.73;88.61;101327.06;4973861;28;45713;-82
2023/01/12 09:54:49;;;;;;;;;2.50;1.00;;;;;11.76;88.66;101336.59;4977067;28;45496;-83
2023/01/12 09:57:33;;;;;;;;;0.00;0.00;;;;;11.81;88.84;101329.47;4974532;28;45402;-79
2023/01/12 10:00:04;;;;;;;;;0.00;0.00;;;;;11.84;88.20;101339.84;4976609;28;45265;-83
2023/01/12 10:05:33;;;;;;;;;0.00;0.00;;;;;11.81;87.86;101342.53;4944025;28;46071;-81
2023/01/12 10:07:58;;;;;;;;;0.00;0.00;;;;;11.82;88.15;101337.28;4909660;28;45556;-83
2023/01/12 10:10:24;;;;;;;;;0.00;0.00;;;;;11.86;87.88;101347.63;4937595;28;45572;-81
2023/01/12 10:12:54;;;;;;;;;0.75;0.00;;;;;11.88;88.74;101344.09;4937026;28;45488;-83
2023/01/12 10:15:27;;;;;;;;;2.00;0.25;;;;;11.94;88.09;101341.38;4938647;28;45375;-83
2023/01/12 10:18:10;;;;;;;;;0.00;0.00;;;;;11.98;87.92;101340.41;4935110;28;45484;-83
2023/01/12 10:20:41;;;;;;;;;1.00;1.00;;;;;12.07;88.44;101338.44;4937996;28;47165;-83
2023/01/12 10:23:07;;;;;;;;;0.25;0.00;;;;;12.10;87.78;101351.41;4938245;28;45682;-81
2023/01/12 10:25:42;;;;;;;;;2.00;0.00;;;;;12.10;88.15;101344.44;4954476;28;45451;-83
2023/01/12 10:28:24;;;;;;;;;1.00;0.00;;;;;12.12;89.00;101334.81;4937906;28;45530;-83
2023/01/12 10:30:50;;;;;;;;;0.00;0.00;;;;;12.16;88.38;101339.06;4937642;28;47303;-83
2023/01/12 10:33:26;;;;;;;;;1.00;0.00;;;;;12.14;88.34;101324.34;4938179;28;45340;-83
2023/01/12 10:35:53;;;;;;;;;1.50;0.00;;;;;12.11;88.22;101322.69;4949426;28;45505;-83
2023/01/12 10:38:34;;;;;;;;;0.00;0.00;;;;;12.13;87.57;101330.47;4974867;28;45419;-82
2023/01/12 10:41:11;;;;;;;;;0.00;0.00;;;;;12.12;88.30;101323.53;4956389;28;45390;-82
2023/01/12 10:43:38;;;;;;;;;2.00;0.00;;;;;12.10;88.47;101326.19;4985405;28;45216;-83
2023/01/12 10:46:15;;;;;;;;;0.00;0.00;;;;;12.08;88.30;101322.75;4974553;28;45455;-83
2023/01/12 10:48:46;;;;;;;;;2.00;0.00;;;;;12.09;88.96;101329.69;4975428;28;45455;-84
2023/01/12 10:51:34;;;;;;;;;1.50;0.00;;;;;12.17;88.89;101338.16;4973358;28;46419;-83
2023/01/12 10:54:20;;;;;;;;;0.00;0.00;;;;;12.20;89.04;101321.56;4977663;28;46324;-81
2023/01/12 10:57:15;;;;;;;;;1.50;0.00;;;;;12.20;88.77;101322.44;5006296;28;45703;-82
2023/01/12 11:02:15;;;;;;;;;0.00;0.00;;;;;12.20;88.22;101324.16;4976534;28;45293;-83
2023/01/12 11:04:43;;;;;;;;;0.00;0.00;;;;;12.22;89.98;101308.47;4978321;28;45449;-83
2023/01/12 11:07:14;;;;;;;;;2.00;0.00;;;;;12.26;89.19;101304.88;4979823;28;45432;-81
2023/01/12 11:09:41;;;;;;;;;1.00;0.00;;;;;12.23;88.20;101312.81;4977886;28;45450;-83
2023/01/12 11:12:26;;;;;;;;;0.00;0.00;;;;;12.16;89.25;101307.72;4975413;28;46211;-84
2023/01/12 11:15:00;;;;;;;;;0.00;0.00;;;;;12.09;89.69;101298.38;4971858;28;45561;-83
2023/01/12 11:17:58;;;;;;;;;0.00;0.00;;;;;12.07;89.05;101289.75;4977739;28;45499;-84
2023/01/12 11:20:38;;;;;;;;;0.25;0.00;;;;;12.09;90.06;101285.34;4973217;28;45432;-83
2023/01/12 11:23:09;;;;;;;;;0.00;0.00;;;;;12.11;89.89;101285.28;4966983;28;46900;-84
2023/01/12 11:25:44;;;;;;;;;0.00;0.00;;;;;12.11;89.51;101274.84;4958113;28;45557;-83
2023/01/12 11:28:36;;;;;;;;;1.25;0.75;;;;;12.14;90.13;101280.81;4959742;28;45493;-83
2023/01/12 11:31:13;;;;;;;;;0.00;0.00;;;;;12.13;88.98;101286.13;4978003;28;45627;-83
2023/01/12 11:33:46;;;;;;;;;0.75;0.00;;;;;12.10;88.50;101267.91;4976643;28;46811;-83
2023/01/12 11:36:25;;;;;;;;;0.00;0.00;;;;;12.11;89.13;101270.50;4959634;28;45655;-82
2023/01/12 11:39:01;;;;;;;;;1.75;0.00;;;;;12.17;88.18;101283.38;4970138;28;45404;-81
2023/01/12 11:45:00;;;;;;;;;0.00;0.00;;;;;12.22;88.23;101274.53;4981581;28;45656;-83
2023/01/12 11:47:33;;;;;;;;;0.00;0.00;;;;;12.24;88.19;101271.03;4975672;28;45627;-82
2023/01/12 11:50:02;;;;;;;;;1.00;1.00;;;;;12.22;88.48;101261.50;4974320;28;45446;-83
2023/01/12 11:52:28;;;;;;;;;0.00;0.00;;;;;12.24;88.00;101262.31;4978808;28;45533;-82
2023/01/12 11:58:01;;;;;;;;;0.00;0.00;;;;;12.34;87.13;101243.75;4968985;28;45722;-84
2023/01/12 12:00:45;;;;;;;;;0.75;0.00;;;;;12.38;86.48;101242.75;4959055;28;45542;-84
2023/01/12 12:03:37;;;;;;;;;0.00;0.00;;;;;12.61;86.52;101250.81;4971265;28;45581;-83
2023/01/12 12:06:16;;;;;;;;;0.50;0.50;;;;;12.87;84.51;101256.16;4967424;28;45413;-83
2023/01/12 12:08:51;;;;;;;;;1.50;0.00;;;;;13.03;85.12;101246.06;4976355;28;45656;-84
2023/01/12 12:11:33;;;;;;;;;0.75;0.00;;;;;13.10;83.95;101225.84;4976518;28;45419;-85
2023/01/12 12:14:20;;;;;;;;;0.75;0.00;;;;;13.21;82.67;101218.50;4976406;28;45825;-83